Time;durP1;ratioP1;P1;durP2;ratioP2;P2;SDS_P1;SDS_P2;PMS_P1;PMS_P2;Temp;Humidity;BMP_temperature;BMP_pressure;BME280_temperature;BME280_humidity;BME280_pressure;Samples;Min_cycle;Max_cycle;Signal;HPM_P1;HPM_P2
2022/03/07 00:00:16;;;;;;;;;;;;;;;3.52;100.00;100426.94;5062315;28;20290;-84
2022/03/07 00:02:43;;;;;;;;;;;;;;;3.52;100.00;100426.94;5095208;28;20425;-85
2022/03/07 00:05:17;;;;;;;;;;;;;;;3.46;100.00;100423.59;5078830;28;20299;-84
2022/03/07 00:07:44;;;;;;;;;;;;;;;3.44;100.00;100425.06;5112529;28;19924;-84
2022/03/07 00:10:11;;;;;;;;;;;;;;;3.40;100.00;100415.88;5095193;28;20329;-84
2022/03/07 00:12:39;;;;;;;;;;;;;;;3.41;100.00;100417.47;5078350;28;19951;-85
2022/03/07 00:15:08;;;;;;;;;;;;;;;2.75;100.00;100413.19;5078869;28;19924;-84
2022/03/07 00:17:36;;;;;;;;;;;;;;;2.70;100.00;100410.63;5078339;28;19928;-84
2022/03/07 00:20:04;;;;;;;;;;;;;;;2.52;100.00;100403.63;5095941;28;19931;-84
2022/03/07 00:22:34;;;;;;;;;;;;;;;2.82;100.00;100399.63;5077983;28;19968;-84
2022/03/07 00:25:03;;;;;;;;;;;;;;;2.86;100.00;100390.31;5111763;28;20019;-85
2022/03/07 00:27:31;;;;;;;;;;;;;;;3.01;100.00;100395.22;5061304;28;19946;-85
2022/03/07 00:29:58;;;;;;;;;;;;;;;2.99;100.00;100391.97;5078132;28;19928;-84
2022/03/07 00:32:26;;;;;;;;;;;;;;;2.98;100.00;100386.78;5094791;28;19928;-84
2022/03/07 00:34:55;;;;;;;;;;;;;;;3.01;100.00;100397.16;5078391;28;19924;-84
2022/03/07 00:37:24;;;;;;;;;;;;;;;2.93;100.00;100403.56;5077871;28;19931;-84
2022/03/07 00:39:51;;;;;;;;;;;;;;;2.95;100.00;100406.81;5061143;28;20364;-84
2022/03/07 00:42:19;;;;;;;;;;;;;;;2.85;100.00;100408.03;5094709;28;19958;-84
2022/03/07 00:44:46;;;;;;;;;;;;;;;3.09;100.00;100399.03;5062067;28;19975;-84
2022/03/07 00:47:16;;;;;;;;;;;;;;;2.89;100.00;100394.38;5091999;28;19949;-84
2022/03/07 00:49:43;;;;;;;;;;;;;;;3.28;100.00;100399.28;5114436;28;19924;-84
2022/03/07 00:52:11;;;;;;;;;;;;;;;3.26;100.00;100396.84;5098448;28;19949;-85
2022/03/07 00:54:39;;;;;;;;;;;;;;;3.07;100.00;100393.03;5097917;28;20011;-85
2022/03/07 00:57:06;;;;;;;;;;;;;;;3.26;100.00;100398.81;5115237;28;19934;-84
2022/03/07 00:59:34;;;;;;;;;;;;;;;3.29;100.00;100401.69;5080653;28;19947;-84
2022/03/07 01:02:05;;;;;;;;;;;;;;;3.25;100.00;100395.25;5097681;28;19947;-85
2022/03/07 01:04:34;;;;;;;;;;;;;;;3.31;100.00;100393.06;5115455;28;19924;-85
2022/03/07 01:07:02;;;;;;;;;;;;;;;3.24;100.00;100393.63;5095781;28;19998;-85
2022/03/07 01:09:30;;;;;;;;;;;;;;;3.26;100.00;100396.03;5080857;28;19977;-85
2022/03/07 01:11:59;;;;;;;;;;;;;;;3.27;100.00;100392.16;5114362;28;19956;-85
2022/03/07 01:14:30;;;;;;;;;;;;;;;3.25;100.00;100394.44;5114629;28;19924;-85
2022/03/07 01:17:01;;;;;;;;;;;;;;;3.25;100.00;100386.16;5113884;28;19931;-85
2022/03/07 01:19:31;;;;;;;;;;;;;;;3.30;100.00;100389.50;5115660;28;19986;-85
2022/03/07 01:21:59;;;;;;;;;;;;;;;3.29;100.00;100396.19;5080715;28;19973;-85
2022/03/07 01:24:30;;;;;;;;;;;;;;;3.37;100.00;100392.50;5115300;28;19977;-85
2022/03/07 01:26:59;;;;;;;;;;;;;;;3.47;100.00;100391.22;5113886;28;19924;-85
2022/03/07 01:29:29;;;;;;;;;;;;;;;3.66;100.00;100385.94;5097847;28;20321;-85
2022/03/07 01:31:57;;;;;;;;;;;;;;;3.54;100.00;100385.97;5097727;28;19928;-85
2022/03/07 01:34:26;;;;;;;;;;;;;;;3.73;100.00;100377.88;5096895;28;19935;-85
2022/03/07 01:36:54;;;;;;;;;;;;;;;3.73;100.00;100373.16;5080607;28;19970;-85
2022/03/07 01:39:23;;;;;;;;;;;;;;;3.89;100.00;100375.22;5113813;28;20006;-85
2022/03/07 01:41:51;;;;;;;;;;;;;;;3.66;100.00;100370.16;5096856;28;19951;-85
2022/03/07 01:44:22;;;;;;;;;;;;;;;3.92;100.00;100363.47;5097532;28;19931;-86
2022/03/07 01:46:50;;;;;;;;;;;;;;;3.95;100.00;100358.06;5096798;28;20306;-85
2022/03/07 01:49:19;;;;;;;;;;;;;;;3.92;100.00;100355.97;5114691;28;19993;-85
2022/03/07 01:51:48;;;;;;;;;;;;;;;4.09;100.00;100358.47;5096901;28;20421;-85
2022/03/07 01:54:17;;;;;;;;;;;;;;;4.16;100.00;100347.63;5096967;28;19928;-85
2022/03/07 01:56:46;;;;;;;;;;;;;;;3.64;100.00;100350.38;5113610;28;19930;-85
2022/03/07 01:59:19;;;;;;;;;;;;;;;3.88;100.00;100345.97;5097036;28;20340;-85
2022/03/07 02:01:47;;;;;;;;;;;;;;;3.62;100.00;100340.78;5079946;28;19973;-85
2022/03/07 02:04:17;;;;;;;;;;;;;;;3.90;100.00;100338.09;5097846;28;19924;-85
2022/03/07 02:06:50;;;;;;;;;;;;;;;4.04;100.00;100335.78;5113414;28;19924;-85
2022/03/07 02:09:17;;;;;;;;;;;;;;;3.95;100.00;100332.34;5113841;28;19924;-86
2022/03/07 02:11:46;;;;;;;;;;;;;;;4.10;100.00;100324.13;5096747;28;19924;-86
2022/03/07 02:14:22;;;;;;;;;;;;;;;3.53;100.00;100323.53;5113384;28;19927;-85
2022/03/07 02:16:53;;;;;;;;;;;;;;;3.67;100.00;100322.03;5113527;28;19923;-85
2022/03/07 02:19:22;;;;;;;;;;;;;;;3.66;100.00;100327.91;5114536;28;19977;-85
2022/03/07 02:21:52;;;;;;;;;;;;;;;3.94;100.00;100317.69;5096510;28;19923;-85
2022/03/07 02:24:28;;;;;;;;;;;;;;;3.88;100.00;100319.09;5080711;28;19934;-85
2022/03/07 02:27:01;;;;;;;;;;;;;;;3.80;100.00;100319.25;5080752;28;19923;-86
2022/03/07 02:29:30;;;;;;;;;;;;;;;3.69;100.00;100307.84;5095898;28;19924;-86
2022/03/07 02:32:17;;;;;;;;;;;;;;;3.77;100.00;100301.41;5094707;28;19924;-85
2022/03/07 02:34:47;;;;;;;;;;;;;;;3.82;100.00;100300.34;5079420;28;19935;-85
2022/03/07 02:37:16;;;;;;;;;;;;;;;3.87;100.00;100298.16;5078828;28;19927;-85
2022/03/07 02:39:53;;;;;;;;;;;;;;;3.96;100.00;100296.03;5096124;28;19963;-85
2022/03/07 02:42:39;;;;;;;;;;;;;;;3.79;100.00;100284.47;5114256;28;19923;-85
2022/03/07 02:45:07;;;;;;;;;;;;;;;3.76;100.00;100294.25;5096938;28;19928;-84
2022/03/07 02:47:34;;;;;;;;;;;;;;;3.84;100.00;100290.53;5117187;28;20022;-84
2022/03/07 02:50:02;;;;;;;;;;;;;;;4.00;100.00;100288.66;5099989;28;19927;-84
2022/03/07 02:52:29;;;;;;;;;;;;;;;4.07;100.00;100297.16;5117316;28;19932;-85
2022/03/07 02:54:57;;;;;;;;;;;;;;;4.05;100.00;100287.59;5117105;28;19923;-86
2022/03/07 02:57:25;;;;;;;;;;;;;;;4.06;100.00;100281.72;5118435;28;19930;-85
2022/03/07 02:59:53;;;;;;;;;;;;;;;4.13;100.00;100279.16;5083210;28;19924;-85
2022/03/07 03:02:21;;;;;;;;;;;;;;;4.21;100.00;100272.66;5116850;28;19924;-85
2022/03/07 03:04:49;;;;;;;;;;;;;;;4.21;100.00;100267.13;5083583;28;19923;-84
2022/03/07 03:07:16;;;;;;;;;;;;;;;4.00;100.00;100277.59;5100150;28;20090;-84
2022/03/07 03:09:45;;;;;;;;;;;;;;;4.18;100.00;100267.84;5117045;28;19931;-84
2022/03/07 03:12:12;;;;;;;;;;;;;;;4.03;100.00;100270.56;5099731;28;19946;-85
2022/03/07 03:14:40;;;;;;;;;;;;;;;4.08;100.00;100262.81;5116534;28;19930;-84
2022/03/07 03:17:07;;;;;;;;;;;;;;;3.98;100.00;100262.50;5116542;28;19924;-84
2022/03/07 03:19:35;;;;;;;;;;;;;;;4.18;100.00;100256.75;5099738;28;19962;-84
2022/03/07 03:22:03;;;;;;;;;;;;;;;4.34;100.00;100254.88;5116806;28;19923;-84
2022/03/07 03:24:32;;;;;;;;;;;;;;;4.37;100.00;100258.88;5099208;28;20015;-84
2022/03/07 03:26:59;;;;;;;;;;;;;;;4.53;100.00;100241.13;5099278;28;20379;-84
2022/03/07 03:29:27;;;;;;;;;;;;;;;4.58;100.00;100237.31;5099060;28;20026;-84
2022/03/07 03:31:54;;;;;;;;;;;;;;;4.59;100.00;100231.41;5116330;28;19959;-84
2022/03/07 03:34:22;;;;;;;;;;;;;;;4.63;100.00;100224.03;5118606;28;19924;-84
2022/03/07 03:36:49;;;;;;;;;;;;;;;4.45;100.00;100230.25;5099908;28;19930;-84
2022/03/07 03:39:16;;;;;;;;;;;;;;;4.50;100.00;100219.69;5116476;28;19927;-84
2022/03/07 03:41:44;;;;;;;;;;;;;;;4.55;100.00;100222.22;5098925;28;19928;-84
2022/03/07 03:44:11;;;;;;;;;;;;;;;4.43;100.00;100227.84;5117021;28;19930;-84
2022/03/07 03:46:39;;;;;;;;;;;;;;;4.37;100.00;100226.47;5098948;28;20071;-84
2022/03/07 03:49:07;;;;;;;;;;;;;;;4.29;100.00;100230.22;5099017;28;19928;-84
2022/03/07 03:51:34;;;;;;;;;;;;;;;4.24;100.00;100233.22;5117149;28;19977;-84
2022/03/07 03:54:04;;;;;;;;;;;;;;;4.13;100.00;100232.13;5083158;28;19924;-84
2022/03/07 03:56:32;;;;;;;;;;;;;;;4.33;100.00;100228.31;5098046;28;19924;-84
2022/03/07 03:58:59;;;;;;;;;;;;;;;4.38;100.00;100222.53;5098609;28;19923;-84
2022/03/07 04:01:29;;;;;;;;;;;;;;;4.27;100.00;100226.97;5100121;28;19930;-84
2022/03/07 04:03:57;;;;;;;;;;;;;;;4.17;100.00;100221.97;5117118;28;19931;-85
2022/03/07 04:06:25;;;;;;;;;;;;;;;4.17;100.00;100227.50;5115582;28;19923;-84
2022/03/07 04:09:02;;;;;;;;;;;;;;;4.15;100.00;100229.81;5116983;27;19923;-85
2022/03/07 04:11:38;;;;;;;;;;;;;;;3.91;100.00;100229.13;5115288;28;19931;-84
2022/03/07 04:14:08;;;;;;;;;;;;;;;3.82;100.00;100225.72;5098730;28;19923;-84
2022/03/07 04:16:38;;;;;;;;;;;;;;;3.77;100.00;100224.00;5098559;28;19988;-84
2022/03/07 04:19:06;;;;;;;;;;;;;;;3.81;100.00;100224.88;5116868;28;19931;-85
2022/03/07 04:21:34;;;;;;;;;;;;;;;3.79;100.00;100218.91;5115669;28;19923;-85
2022/03/07 04:24:01;;;;;;;;;;;;;;;3.70;100.00;100212.72;5115310;28;19932;-85
2022/03/07 04:26:29;;;;;;;;;;;;;;;3.75;100.00;100215.25;5115468;28;19927;-84
2022/03/07 04:28:56;;;;;;;;;;;;;;;3.79;100.00;100207.84;5115538;28;19973;-85
2022/03/07 04:31:27;;;;;;;;;;;;;;;3.89;100.00;100210.13;5098616;28;19996;-84
2022/03/07 04:33:54;;;;;;;;;;;;;;;4.05;100.00;100212.91;5098366;28;19962;-85
2022/03/07 04:36:22;;;;;;;;;;;;;;;4.07;100.00;100216.97;5098520;28;19924;-85
2022/03/07 04:38:49;;;;;;;;;;;;;;;4.34;100.00;100205.06;5115101;28;19923;-85
2022/03/07 04:41:16;;;;;;;;;;;;;;;4.35;100.00;100212.19;5081128;28;19934;-85
2022/03/07 04:43:45;;;;;;;;;;;;;;;3.98;100.00;100213.53;5115221;28;19923;-85
2022/03/07 04:46:12;;;;;;;;;;;;;;;4.22;100.00;100218.97;5098535;28;20493;-85
2022/03/07 04:48:40;;;;;;;;;;;;;;;4.05;100.00;100210.97;5097648;28;20393;-85
2022/03/07 04:51:07;;;;;;;;;;;;;;;4.09;100.00;100203.56;5115014;28;19969;-85
2022/03/07 04:53:34;;;;;;;;;;;;;;;4.25;100.00;100212.72;5115874;28;19924;-85
2022/03/07 04:56:02;;;;;;;;;;;;;;;4.27;100.00;100221.44;5088556;28;19928;-85
2022/03/07 04:58:29;;;;;;;;;;;;;;;4.17;100.00;100215.63;5095635;28;19924;-84
2022/03/07 05:00:57;;;;;;;;;;;;;;;4.05;100.00;100208.19;5077715;28;19928;-85
2022/03/07 05:03:25;;;;;;;;;;;;;;;4.11;100.00;100217.84;5077274;28;19947;-85
2022/03/07 05:05:52;;;;;;;;;;;;;;;4.16;100.00;100209.31;5077427;28;19924;-85
2022/03/07 05:08:19;;;;;;;;;;;;;;;4.02;100.00;100213.63;5093328;28;20345;-85
2022/03/07 05:10:47;;;;;;;;;;;;;;;4.33;100.00;100208.97;5060676;28;20414;-85
2022/03/07 05:13:14;;;;;;;;;;;;;;;4.39;100.00;100212.28;5077398;28;20015;-85
2022/03/07 05:15:42;;;;;;;;;;;;;;;4.08;100.00;100203.91;5093943;28;19974;-85
2022/03/07 05:18:09;;;;;;;;;;;;;;;4.67;100.00;100208.28;5094436;28;19924;-85
2022/03/07 05:20:37;;;;;;;;;;;;;;;4.49;100.00;100203.44;5076868;28;19935;-85
2022/03/07 05:23:21;;;;;;;;;;;;;;;4.39;100.00;100196.47;5079020;28;19956;-85
2022/03/07 05:25:52;;;;;;;;;;;;;;;4.88;100.00;100200.50;5095162;28;19977;-85
2022/03/07 05:28:22;;;;;;;;;;;;;;;4.05;100.00;100186.06;5095067;28;19928;-85
2022/03/07 05:30:50;;;;;;;;;;;;;;;4.35;100.00;100195.59;5077190;28;19925;-85
2022/03/07 05:33:20;;;;;;;;;;;;;;;4.44;100.00;100187.13;5093974;28;20019;-85
2022/03/07 05:35:47;;;;;;;;;;;;;;;4.43;100.00;100185.50;5093424;28;19928;-85
2022/03/07 05:38:17;;;;;;;;;;;;;;;4.65;100.00;100182.91;5079108;28;19924;-85
2022/03/07 05:40:46;;;;;;;;;;;;;;;4.63;100.00;100179.72;5093819;28;19959;-85
2022/03/07 05:43:19;;;;;;;;;;;;;;;4.75;100.00;100187.94;5077312;28;20287;-85
2022/03/07 05:45:52;;;;;;;;;;;;;;;5.01;100.00;100185.38;5077121;28;19998;-85
2022/03/07 05:48:24;;;;;;;;;;;;;;;4.62;100.00;100188.38;5077784;28;20013;-85
2022/03/07 05:50:58;;;;;;;;;;;;;;;5.03;100.00;100183.06;5077623;28;19985;-85
2022/03/07 05:53:29;;;;;;;;;;;;;;;5.09;100.00;100181.63;5076192;28;20344;-85
2022/03/07 05:55:59;;;;;;;;;;;;;;;4.98;100.00;100188.09;5061099;28;19924;-85
2022/03/07 05:58:26;;;;;;;;;;;;;;;5.01;100.00;100182.63;5076545;28;19934;-85
2022/03/07 06:00:56;;;;;;;;;;;;;;;4.93;100.00;100183.63;5059760;28;19970;-85
2022/03/07 06:03:24;;;;;;;;;;;;;;;4.88;100.00;100177.53;5110913;28;19924;-85
2022/03/07 06:05:51;;;;;;;;;;;;;;;4.82;100.00;100182.56;5092969;28;20014;-86
2022/03/07 06:08:19;;;;;;;;;;;;;;;4.84;100.00;100177.47;5093117;28;19924;-85
2022/03/07 06:10:46;;;;;;;;;;;;;;;4.70;100.00;100184.63;5059805;28;20364;-85
2022/03/07 06:13:13;;;;;;;;;;;;;;;4.45;100.00;100184.00;5093822;28;19924;-85
2022/03/07 06:15:43;;;;;;;;;;;;;;;4.25;100.00;100185.03;5092746;28;19974;-86
2022/03/07 06:18:14;;;;;;;;;;;;;;;4.34;100.00;100180.16;5059708;28;19924;-85
2022/03/07 06:20:41;;;;;;;;;;;;;;;4.47;100.00;100178.91;5059684;28;20437;-85
2022/03/07 06:23:11;;;;;;;;;;;;;;;4.72;100.00;100177.56;5076528;28;19924;-85
2022/03/07 06:25:41;;;;;;;;;;;;;;;4.51;100.00;100177.03;5077649;28;19930;-85
2022/03/07 06:28:09;;;;;;;;;;;;;;;4.38;100.00;100169.97;5093922;28;19924;-85
2022/03/07 06:30:36;;;;;;;;;;;;;;;4.46;100.00;100174.53;5059782;28;19924;-85
2022/03/07 06:33:03;;;;;;;;;;;;;;;4.62;100.00;100177.31;5092835;28;19956;-85
2022/03/07 06:35:34;;;;;;;;;;;;;;;4.23;100.00;100173.53;5059793;28;20024;-85
2022/03/07 06:38:05;;;;;;;;;;;;;;;4.38;100.00;100183.81;5092451;28;20009;-85
2022/03/07 06:40:32;;;;;;;;;;;;;;;4.49;100.00;100167.47;5092939;28;19924;-86
2022/03/07 06:43:02;;;;;;;;;;;;;;;4.37;100.00;100173.09;5060414;28;19928;-85
2022/03/07 06:45:32;;;;;;;;;;;;;;;4.61;100.00;100168.19;5075769;28;20027;-86
2022/03/07 06:48:05;;;;;;;;;;;;;;;4.87;100.00;100168.44;5044414;28;19924;-86
2022/03/07 06:50:34;;;;;;;;;;;;;;;5.01;100.00;100162.44;5093507;28;20378;-85
2022/03/07 06:53:02;;;;;;;;;;;;;;;4.68;100.00;100160.06;5076014;28;20015;-85
2022/03/07 06:55:32;;;;;;;;;;;;;;;4.69;100.00;100161.69;5060477;28;19931;-85
2022/03/07 06:58:08;;;;;;;;;;;;;;;4.50;100.00;100163.56;5061504;28;20003;-85
2022/03/07 07:00:35;;;;;;;;;;;;;;;4.58;100.00;100162.56;5104755;28;20382;-85
2022/03/07 07:03:05;;;;;;;;;;;;;;;4.76;100.00;100161.84;5108382;28;19927;-85
2022/03/07 07:05:35;;;;;;;;;;;;;;;4.96;100.00;100157.97;5096048;28;20332;-85
2022/03/07 07:08:03;;;;;;;;;;;;;;;4.55;100.00;100158.56;5092202;28;20360;-85
2022/03/07 07:10:31;;;;;;;;;;;;;;;4.57;100.00;100149.88;5092041;28;19974;-85
2022/03/07 07:12:59;;;;;;;;;;;;;;;4.62;100.00;100147.66;5076201;28;20249;-85
2022/03/07 07:15:26;;;;;;;;;;;;;;;4.56;100.00;100151.06;5058908;28;19924;-85
2022/03/07 07:17:55;;;;;;;;;;;;;;;4.86;100.00;100147.44;5058922;28;19973;-85
2022/03/07 07:20:22;;;;;;;;;;;;;;;4.85;100.00;100148.63;5058672;28;19974;-85
2022/03/07 07:22:49;;;;;;;;;;;;;;;4.65;100.00;100138.63;5091907;28;19924;-85
2022/03/07 07:25:18;;;;;;;;;;;;;;;4.74;100.00;100136.47;5092430;28;20325;-85
2022/03/07 07:27:45;;;;;;;;;;;;;;;4.90;100.00;100130.91;5092095;28;19924;-86
2022/03/07 07:30:13;;;;;;;;;;;;;;;4.97;100.00;100136.59;5076369;28;19947;-85
2022/03/07 07:32:42;;;;;;;;;;;;;;;5.08;100.00;100135.72;5081248;28;19924;-86
2022/03/07 07:35:09;;;;;;;;;;;;;;;4.90;100.00;100133.69;5116079;28;19931;-82
2022/03/07 07:37:36;;;;;;;;;;;;;;;5.03;100.00;100127.66;5116618;28;19928;-84
2022/03/07 07:40:05;;;;;;;;;;;;;;;4.92;100.00;100125.81;5115827;28;19924;-83
2022/03/07 07:42:33;;;;;;;;;;;;;;;4.77;100.00;100124.69;5081966;28;19973;-83
2022/03/07 07:45:09;;;;;;;;;;;;;;;4.83;100.00;100120.47;5098790;28;20407;-84
2022/03/07 07:47:37;;;;;;;;;;;;;;;4.85;100.00;100109.84;5115744;28;19924;-83
2022/03/07 07:50:04;;;;;;;;;;;;;;;4.78;100.00;100119.94;5081767;28;19955;-82
2022/03/07 07:52:32;;;;;;;;;;;;;;;4.66;100.00;100128.38;5098762;28;19928;-82
2022/03/07 07:54:59;;;;;;;;;;;;;;;4.89;100.00;100124.56;5099645;28;19924;-82
2022/03/07 07:57:26;;;;;;;;;;;;;;;4.89;100.00;100121.00;5082480;28;19924;-82
2022/03/07 07:59:54;;;;;;;;;;;;;;;4.94;100.00;100123.47;5099573;28;20287;-83
2022/03/07 08:02:44;;;;;;;;;;;;;;;5.12;100.00;100119.97;5101404;28;19924;-85
2022/03/07 08:05:13;;;;;;;;;;;;;;;5.26;100.00;100125.00;5061345;28;20299;-84
2022/03/07 08:07:44;;;;;;;;;;;;;;;4.81;100.00;100120.03;5061648;28;19964;-85
2022/03/07 08:10:12;;;;;;;;;;;;;;;4.87;100.00;100115.84;5095412;28;19977;-84
2022/03/07 08:12:40;;;;;;;;;;;;;;;4.98;100.00;100122.41;5062523;28;19973;-84
2022/03/07 08:15:12;;;;;;;;;;;;;;;5.01;100.00;100118.91;5061584;28;19928;-85
2022/03/07 08:17:46;;;;;;;;;;;;;;;5.11;100.00;100112.81;5095405;28;19924;-84
2022/03/07 08:20:14;;;;;;;;;;;;;;;5.11;100.00;100112.81;5078472;28;19931;-86
2022/03/07 08:22:42;;;;;;;;;;;;;;;5.01;100.00;100107.81;5061790;28;20375;-84
2022/03/07 08:25:10;;;;;;;;;;;;;;;5.14;100.00;100117.63;5096142;28;20290;-84
2022/03/07 08:27:38;;;;;;;;;;;;;;;5.30;100.00;100115.59;5061762;28;20391;-85
2022/03/07 08:30:10;;;;;;;;;;;;;;;5.14;100.00;100108.50;5077977;28;20290;-83
2022/03/07 08:32:38;;;;;;;;;;;;;;;5.34;100.00;100108.19;5077876;28;19967;-84
2022/03/07 08:35:06;;;;;;;;;;;;;;;5.30;100.00;100110.06;5078630;28;19993;-83
2022/03/07 08:37:36;;;;;;;;;;;;;;;5.40;100.00;100108.69;5094995;28;19947;-83
2022/03/07 08:40:06;;;;;;;;;;;;;;;5.19;100.00;100103.50;5077788;28;19931;-83
2022/03/07 08:42:36;;;;;;;;;;;;;;;5.42;100.00;100107.16;5078407;28;19924;-83
2022/03/07 08:45:04;;;;;;;;;;;;;;;5.20;100.00;100099.56;5095249;28;19970;-82
2022/03/07 08:47:31;;;;;;;;;;;;;;;5.33;100.00;100098.25;5094629;28;19967;-82
2022/03/07 08:49:59;;;;;;;;;;;;;;;5.51;100.00;100098.63;5061013;28;19927;-82
2022/03/07 08:52:26;;;;;;;;;;;;;;;5.66;100.00;100096.94;5095385;28;19924;-82
2022/03/07 08:54:54;;;;;;;;;;;;;;;5.43;100.00;100103.22;5078866;28;20562;-83
2022/03/07 08:57:21;;;;;;;;;;;;;;;5.57;100.00;100103.50;5109493;28;19955;-84
2022/03/07 08:59:48;;;;;;;;;;;;;;;5.62;100.00;100098.84;5074711;28;19924;-84
2022/03/07 09:02:15;;;;;;;;;;;;;;;5.59;100.00;100095.63;5091537;28;20018;-84
2022/03/07 09:04:43;;;;;;;;;;;;;;;5.68;100.00;100100.16;5107727;28;19931;-83
2022/03/07 09:07:10;;;;;;;;;;;;;;;5.80;100.00;100102.75;5104190;28;20291;-84
2022/03/07 09:09:37;;;;;;;;;;;;;;;5.76;100.00;100094.38;5100596;28;20006;-84
2022/03/07 09:12:04;;;;;;;;;;;;;;;5.41;100.00;100093.66;5092263;28;19924;-83
2022/03/07 09:14:32;;;;;;;;;;;;;;;5.54;100.00;100087.59;5098137;28;20383;-83
2022/03/07 09:16:59;;;;;;;;;;;;;;;5.67;100.00;100087.44;5095840;28;19923;-83
2022/03/07 09:19:26;;;;;;;;;;;;;;;5.98;100.00;100084.50;5091448;28;19924;-83
2022/03/07 09:21:53;;;;;;;;;;;;;;;6.11;100.00;100094.25;5105922;27;19924;-83
2022/03/07 09:24:20;;;;;;;;;;;;;;;6.03;100.00;100100.88;5093542;28;19924;-82
2022/03/07 09:26:47;;;;;;;;;;;;;;;5.77;100.00;100095.19;5112335;28;19931;-82
2022/03/07 09:29:15;;;;;;;;;;;;;;;5.80;100.00;100088.91;5094534;28;20415;-81
2022/03/07 09:31:42;;;;;;;;;;;;;;;5.76;100.00;100088.00;5093928;28;19930;-85
2022/03/07 09:34:10;;;;;;;;;;;;;;;5.86;100.00;100076.38;5110636;28;20371;-83
2022/03/07 09:36:37;;;;;;;;;;;;;;;5.82;100.00;100081.84;5114518;27;19924;-82
2022/03/07 09:39:05;;;;;;;;;;;;;;;5.67;100.00;100084.66;5131185;27;19951;-81
2022/03/07 09:41:32;;;;;;;;;;;;;;;5.67;100.00;100079.94;5130065;27;19924;-81
2022/03/07 09:43:59;;;;;;;;;;;;;;;5.94;100.00;100078.09;5073982;28;19924;-81
2022/03/07 09:46:27;;;;;;;;;;;;;;;5.74;100.00;100082.06;5090313;28;19924;-82
2022/03/07 09:48:56;;;;;;;;;;;;;;;5.60;100.00;100085.34;5073481;28;19924;-84
2022/03/07 09:51:24;;;;;;;;;;;;;;;5.49;100.00;100090.69;5117397;27;19924;-84
2022/03/07 09:53:51;;;;;;;;;;;;;;;5.53;100.00;100086.00;5110418;28;19956;-81
2022/03/07 09:56:18;;;;;;;;;;;;;;;5.62;100.00;100088.53;5110486;28;19927;-83
2022/03/07 09:58:45;;;;;;;;;;;;;;;5.72;100.00;100087.16;5094048;28;20010;-80
2022/03/07 10:01:16;;;;;;;;;;;;;;;5.90;100.00;100085.53;5093399;28;19924;-82
2022/03/07 10:03:48;;;;;;;;;;;;;;;6.18;100.00;100078.53;5110589;28;19927;-82
2022/03/07 10:06:17;;;;;;;;;;;;;;;6.05;100.00;100070.75;5111812;28;19931;-82
2022/03/07 10:08:51;;;;;;;;;;;;;;;6.25;100.00;100069.53;5112399;28;19924;-85
2022/03/07 10:11:25;;;;;;;;;;;;;;;6.38;100.00;100068.16;5097772;28;19971;-84
2022/03/07 10:13:56;;;;;;;;;;;;;;;6.69;100.00;100065.09;5095905;28;20577;-85
2022/03/07 10:16:38;;;;;;;;;;;;;;;6.70;100.00;100061.94;5111555;28;19930;-83
2022/03/07 10:19:09;;;;;;;;;;;;;;;6.77;100.00;100061.28;5110201;28;19932;-85
2022/03/07 10:21:47;;;;;;;;;;;;;;;6.61;100.00;100063.38;5110252;28;19923;-87
2022/03/07 10:24:16;;;;;;;;;;;;;;;6.74;100.00;100057.25;5110237;28;20413;-84
2022/03/07 10:26:47;;;;;;;;;;;;;;;6.74;100.00;100051.69;5111928;28;20361;-84
2022/03/07 10:29:15;;;;;;;;;;;;;;;6.39;100.00;100053.91;5110137;28;19923;-80
2022/03/07 10:31:58;;;;;;;;;;;;;;;6.30;100.00;100047.03;5095990;28;19924;-86
2022/03/07 10:34:26;;;;;;;;;;;;;;;6.38;100.00;100045.94;5078497;28;19927;-87
2022/03/07 10:37:00;;;;;;;;;;;;;;;6.39;100.00;100039.25;5080764;28;20341;-85
2022/03/07 10:39:30;;;;;;;;;;;;;;;6.30;100.00;100033.94;5056558;28;20011;-81
2022/03/07 10:42:00;;;;;;;;;;;;;;;6.69;100.00;100023.44;5056819;28;20375;-82
2022/03/07 10:44:35;;;;;;;;;;;;;;;6.67;100.00;100012.72;5090921;28;20481;-82
2022/03/07 10:47:14;;;;;;;;;;;;;;;6.56;100.00;100010.94;5089183;28;19978;-81
2022/03/07 10:49:48;;;;;;;;;;;;;;;7.22;100.00;100005.50;5056055;28;19924;-82
2022/03/07 10:52:15;;;;;;;;;;;;;;;6.57;100.00;100009.78;5089551;28;19924;-83
2022/03/07 10:54:43;;;;;;;;;;;;;;;6.47;100.00;100002.06;5056643;28;19947;-81
2022/03/07 10:57:10;;;;;;;;;;;;;;;6.37;100.00;100009.09;5073145;28;19928;-83
2022/03/07 10:59:41;;;;;;;;;;;;;;;6.56;100.00;100005.38;5098304;28;19985;-82
2022/03/07 11:02:11;;;;;;;;;;;;;;;6.32;100.00;100008.56;5131722;27;19934;-82
2022/03/07 11:04:39;;;;;;;;;;;;;;;6.34;100.00;100006.25;5132077;27;20010;-82
2022/03/07 11:07:09;;;;;;;;;;;;;;;6.17;100.00;100009.53;5133797;27;20038;-84
2022/03/07 11:09:39;;;;;;;;;;;;;;;6.17;100.00;100009.53;5133914;27;19931;-81
2022/03/07 11:12:17;;;;;;;;;;;;;;;6.14;100.00;100016.63;5133576;27;19972;-83
2022/03/07 11:14:45;;;;;;;;;;;;;;;6.35;100.00;100005.06;5117266;27;19931;-84
2022/03/07 11:17:16;;;;;;;;;;;;;;;6.71;100.00;100004.44;5081266;28;19932;-85
2022/03/07 11:19:48;;;;;;;;;;;;;;;6.86;100.00;99992.34;5093254;28;19934;-82
2022/03/07 11:22:15;;;;;;;;;;;;;;;7.03;100.00;99995.34;5109227;28;19924;-82
2022/03/07 11:24:50;;;;;;;;;;;;;;;6.80;100.00;99966.84;5093713;28;19931;-83
2022/03/07 11:27:18;;;;;;;;;;;;;;;7.19;100.00;99975.69;5059996;28;19924;-83
2022/03/07 11:29:52;;;;;;;;;;;;;;;7.31;100.00;99969.88;5076187;28;19925;-81
2022/03/07 11:32:21;;;;;;;;;;;;;;;7.33;100.00;99964.72;5092768;28;19924;-81
2022/03/07 11:34:56;;;;;;;;;;;;;;;7.45;100.00;99953.34;5109673;28;19974;-81
2022/03/07 11:37:30;;;;;;;;;;;;;;;7.45;100.00;99953.34;5094178;28;19924;-86
2022/03/07 11:40:02;;;;;;;;;;;;;;;7.00;100.00;99942.50;5093204;28;19924;-86
2022/03/07 11:42:37;;;;;;;;;;;;;;;7.25;100.00;99941.59;5076471;28;19924;-83
2022/03/07 11:45:05;;;;;;;;;;;;;;;7.06;100.00;99936.22;5095102;27;19924;-81
2022/03/07 11:47:39;;;;;;;;;;;;;;;7.21;100.00;99926.06;5062369;28;19924;-82
2022/03/07 11:50:07;;;;;;;;;;;;;;;7.35;100.00;99927.03;5110342;27;19981;-82
2022/03/07 11:52:34;;;;;;;;;;;;;;;7.64;100.00;99910.59;5133544;27;19954;-82
2022/03/07 11:55:04;;;;;;;;;;;;;;;7.31;100.00;99919.84;5134641;27;19927;-82
2022/03/07 11:57:33;;;;;;;;;;;;;;;7.38;100.00;99908.00;5099396;27;19968;-81
2022/03/07 12:00:16;;;;;;;;;;;;;;;7.52;100.00;99911.69;5133808;27;19923;-81
2022/03/07 12:02:50;;;;;;;;;;;;;;;7.08;100.00;99906.09;5127179;27;19961;-82
2022/03/07 12:05:32;;;;;;;;;;;;;;;6.92;100.00;99896.38;5111857;28;19923;-81
2022/03/07 12:08:10;;;;;;;;;;;;;;;6.55;100.00;99892.72;5112519;28;19946;-81
2022/03/07 12:10:39;;;;;;;;;;;;;;;7.05;100.00;99894.91;5095945;28;19927;-81
2022/03/07 12:13:08;;;;;;;;;;;;;;;7.30;100.00;99890.41;5095321;28;19930;-81
2022/03/07 12:15:45;;;;;;;;;;;;;;;6.93;100.00;99887.66;5080896;28;19924;-81
2022/03/07 12:18:12;;;;;;;;;;;;;;;6.98;100.00;99886.50;5102117;28;20263;-85
2022/03/07 12:20:47;;;;;;;;;;;;;;;6.74;100.00;99878.69;5062270;27;19932;-86
2022/03/07 12:23:15;;;;;;;;;;;;;;;6.47;100.00;99868.81;5095217;28;20385;-86
2022/03/07 12:25:43;;;;;;;;;;;;;;;6.85;100.00;99874.03;5112686;28;19931;-86
2022/03/07 12:28:11;;;;;;;;;;;;;;;6.89;100.00;99869.34;5112853;28;19928;-86
2022/03/07 12:30:39;;;;;;;;;;;;;;;7.05;100.00;99872.69;5113551;28;19924;-83
2022/03/07 12:33:09;;;;;;;;;;;;;;;7.29;100.00;99872.16;5078182;28;19927;-84
2022/03/07 12:35:39;;;;;;;;;;;;;;;7.07;100.00;99862.78;5110406;28;19923;-84
2022/03/07 12:38:11;;;;;;;;;;;;;;;6.40;100.00;99854.84;5110700;28;20035;-83
2022/03/07 12:40:39;;;;;;;;;;;;;;;6.70;100.00;99850.06;5106535;28;19991;-84
2022/03/07 12:43:08;;;;;;;;;;;;;;;6.82;100.00;99847.03;5100367;28;19930;-88
2022/03/07 12:45:43;;;;;;;;;;;;;;;6.84;100.00;99833.56;5090124;28;19923;-83
2022/03/07 12:48:11;;;;;;;;;;;;;;;7.38;100.00;99822.59;5112242;28;19946;-83